Time;durP1;ratioP1;P1;durP2;ratioP2;P2;SDS_P1;SDS_P2;PMS_P1;PMS_P2;Temp;Humidity;BMP_temperature;BMP_pressure;BME280_temperature;BME280_humidity;BME280_pressure;Samples;Min_cycle;Max_cycle;Signal;HPM_P1;HPM_P2
2022/06/08 00:00:18;;;;;;;;;;;;;;;26.96;52.71;98173.41;2060804;28;20598;-70
2022/06/08 00:01:20;;;;;;;;;;;;;;;26.94;53.00;98168.25;2064860;28;19933;-70
2022/06/08 00:02:22;;;;;;;;;;;;;;;26.95;52.95;98172.59;2060841;28;19987;-70
2022/06/08 00:03:30;;;;;;;;;;;;;;;26.94;52.78;98170.97;2066009;28;19929;-70
2022/06/08 00:04:31;;;;;;;;;;;;;;;26.95;52.81;98174.50;2064695;28;20674;-70
2022/06/08 00:05:33;;;;;;;;;;;;;;;26.97;53.04;98169.59;2060133;28;19933;-71
2022/06/08 00:06:33;;;;;;;;;;;;;;;26.96;53.14;98176.13;2062732;28;19929;-70
2022/06/08 00:07:35;;;;;;;;;;;;;;;26.97;52.81;98175.06;2064306;28;20483;-70
2022/06/08 00:08:35;;;;;;;;;;;;;;;26.95;52.61;98178.03;2060641;28;20144;-70
2022/06/08 00:09:38;;;;;;;;;;;;;;;26.95;53.04;98178.03;2066352;28;19982;-70
2022/06/08 00:10:39;;;;;;;;;;;;;;;26.94;52.77;98176.41;2067346;28;20302;-70
2022/06/08 00:11:41;;;;;;;;;;;;;;;26.95;53.00;98178.03;2063955;28;19940;-71
2022/06/08 00:12:41;;;;;;;;;;;;;;;26.94;52.86;98179.13;2067595;28;19936;-71
2022/06/08 00:13:44;;;;;;;;;;;;;;;26.95;53.06;98167.13;2066411;28;19935;-70
2022/06/08 00:14:45;;;;;;;;;;;;;;;26.95;52.83;98178.03;2067464;28;19999;-70
2022/06/08 00:15:49;;;;;;;;;;;;;;;26.95;52.79;98171.78;2067217;28;19962;-71
2022/06/08 00:16:50;;;;;;;;;;;;;;;26.95;52.69;98161.69;2068829;28;19931;-71
2022/06/08 00:17:52;;;;;;;;;;;;;;;26.93;52.77;98163.88;2062721;28;19925;-71
2022/06/08 00:18:53;;;;;;;;;;;;;;;26.93;53.24;98160.34;2066725;28;19936;-71
2022/06/08 00:19:54;;;;;;;;;;;;;;;26.92;53.21;98167.69;2061808;28;20441;-71
2022/06/08 00:20:56;;;;;;;;;;;;;;;26.94;53.16;98170.13;2067703;28;19929;-71
2022/06/08 00:21:57;;;;;;;;;;;;;;;26.94;53.25;98165.50;2065992;28;19929;-71
2022/06/08 00:22:58;;;;;;;;;;;;;;;26.94;53.25;98162.78;2062654;28;19980;-71
2022/06/08 00:23:59;;;;;;;;;;;;;;;26.94;53.23;98161.94;2066179;28;19926;-71
2022/06/08 00:25:02;;;;;;;;;;;;;;;26.94;53.01;98159.22;2062340;28;19956;-71
2022/06/08 00:26:03;;;;;;;;;;;;;;;26.95;53.30;98156.25;2066781;28;19975;-71
2022/06/08 00:27:05;;;;;;;;;;;;;;;26.92;53.31;98156.78;2058484;28;19933;-71
2022/06/08 00:28:06;;;;;;;;;;;;;;;26.95;53.21;98160.88;2061789;28;20000;-71
2022/06/08 00:29:08;;;;;;;;;;;;;;;26.93;52.91;98154.88;2063511;28;19937;-71
2022/06/08 00:30:09;;;;;;;;;;;;;;;26.93;53.20;98158.41;2060650;28;20511;-72
2022/06/08 00:31:12;;;;;;;;;;;;;;;26.94;53.22;98162.78;2062745;28;20032;-71
2022/06/08 00:32:12;;;;;;;;;;;;;;;26.93;53.39;98163.88;2068974;28;19929;-71
2022/06/08 00:33:14;;;;;;;;;;;;;;;26.94;52.96;98160.06;2063171;28;20023;-71
2022/06/08 00:34:15;;;;;;;;;;;;;;;26.93;53.42;98158.41;2064574;28;19933;-70
2022/06/08 00:35:17;;;;;;;;;;;;;;;26.92;53.24;98156.78;2057476;28;20413;-70
2022/06/08 00:36:17;;;;;;;;;;;;;;;26.94;53.15;98151.91;2062152;28;19999;-71
2022/06/08 00:37:19;;;;;;;;;;;;;;;26.92;53.24;98148.63;2063545;28;19992;-71
2022/06/08 00:38:19;;;;;;;;;;;;;;;26.92;53.44;98159.53;2064283;28;20220;-71
2022/06/08 00:39:21;;;;;;;;;;;;;;;26.93;53.15;98150.25;2063500;28;19940;-71
2022/06/08 00:40:26;;;;;;;;;;;;;;;26.93;53.52;98152.97;2059623;28;19952;-71
2022/06/08 00:41:34;;;;;;;;;;;;;;;26.94;53.17;98154.63;2057898;28;19933;-71
2022/06/08 00:42:36;;;;;;;;;;;;;;;26.92;53.21;98155.97;2060103;28;19933;-70
2022/06/08 00:43:37;;;;;;;;;;;;;;;26.92;53.21;98156.78;2061428;28;19975;-71
2022/06/08 00:44:41;;;;;;;;;;;;;;;26.91;53.39;98157.91;2063921;28;19995;-71
2022/06/08 00:45:42;;;;;;;;;;;;;;;26.92;53.41;98156.78;2059064;28;19960;-71
2022/06/08 00:46:44;;;;;;;;;;;;;;;26.92;53.04;98154.06;2063110;28;19929;-71
2022/06/08 00:47:46;;;;;;;;;;;;;;;26.92;52.94;98155.97;2065709;28;20347;-71
2022/06/08 00:48:50;;;;;;;;;;;;;;;26.91;53.21;98160.63;2063358;28;20207;-70
2022/06/08 00:49:53;;;;;;;;;;;;;;;26.91;53.11;98157.91;2060512;28;20466;-71
2022/06/08 00:50:57;;;;;;;;;;;;;;;26.93;53.31;98163.06;2064102;28;19929;-71
2022/06/08 00:51:59;;;;;;;;;;;;;;;26.92;53.18;98161.44;2061423;28;20317;-71
2022/06/08 00:53:01;;;;;;;;;;;;;;;26.91;53.42;98149.72;2061923;28;19987;-71
2022/06/08 00:54:04;;;;;;;;;;;;;;;26.92;52.97;98153.25;2059806;28;19929;-71
2022/06/08 00:55:07;;;;;;;;;;;;;;;26.91;53.13;98157.91;2061695;28;19929;-71
2022/06/08 00:56:12;;;;;;;;;;;;;;;26.91;53.42;98149.72;2063099;28;19937;-71
2022/06/08 00:57:16;;;;;;;;;;;;;;;26.90;52.96;98150.81;2059511;28;20361;-70
2022/06/08 00:58:19;;;;;;;;;;;;;;;26.90;53.22;98148.06;2060544;28;19940;-70
2022/06/08 00:59:21;;;;;;;;;;;;;;;26.89;53.51;98149.19;2063180;28;20506;-71
2022/06/08 01:00:23;;;;;;;;;;;;;;;26.90;53.34;98141.81;2067747;28;19929;-70
2022/06/08 01:01:25;;;;;;;;;;;;;;;26.89;53.46;98151.91;2066993;28;19929;-70
2022/06/08 01:02:26;;;;;;;;;;;;;;;26.89;53.20;98146.47;2066319;28;19955;-71
2022/06/08 01:03:28;;;;;;;;;;;;;;;26.90;53.39;98150.81;2067839;28;20007;-71
2022/06/08 01:04:29;;;;;;;;;;;;;;;26.90;53.27;98150.00;2061087;28;19933;-71
2022/06/08 01:05:34;;;;;;;;;;;;;;;26.90;53.06;98150.00;2059765;28;20093;-71
2022/06/08 01:06:36;;;;;;;;;;;;;;;26.90;53.13;98153.53;2063255;28;19929;-70
2022/06/08 01:07:38;;;;;;;;;;;;;;;26.88;53.18;98150.25;2061152;28;19984;-71
2022/06/08 01:08:40;;;;;;;;;;;;;;;26.90;53.55;98153.53;2062909;28;20004;-71
2022/06/08 01:09:43;;;;;;;;;;;;;;;26.88;53.29;98149.44;2063491;28;20351;-71
2022/06/08 01:10:45;;;;;;;;;;;;;;;26.90;53.45;98150.81;2062025;28;20012;-68
2022/06/08 01:11:48;;;;;;;;;;;;;;;26.89;53.28;98151.91;2063458;28;19933;-69
2022/06/08 01:12:49;;;;;;;;;;;;;;;26.88;53.57;98144.81;2059323;28;20048;-68
2022/06/08 01:13:52;;;;;;;;;;;;;;;26.89;53.11;98146.47;2064347;28;20371;-67
2022/06/08 01:14:53;;;;;;;;;;;;;;;26.88;53.38;98144.81;2061563;28;19956;-68
2022/06/08 01:15:54;;;;;;;;;;;;;;;26.89;53.12;98141.00;2062940;28;19961;-68
2022/06/08 01:16:58;;;;;;;;;;;;;;;26.88;53.20;98138.56;2059655;28;19932;-68
2022/06/08 01:18:02;;;;;;;;;;;;;;;26.88;53.57;98135.81;2058847;28;20381;-69
2022/06/08 01:19:04;;;;;;;;;;;;;;;26.88;53.53;98136.63;2061870;28;19935;-67
2022/06/08 01:20:06;;;;;;;;;;;;;;;26.89;53.50;98143.72;2067948;28;20522;-67
2022/06/08 01:21:31;;;;;;;;;;;;;;;26.89;53.64;98138.28;2058518;28;20461;-67
2022/06/08 01:22:34;;;;;;;;;;;;;;;26.90;53.48;98145.34;2059976;28;20469;-68
2022/06/08 01:23:35;;;;;;;;;;;;;;;26.86;53.22;98135.31;2057946;28;20594;-68
2022/06/08 01:24:37;;;;;;;;;;;;;;;26.87;53.29;98129.56;2064477;28;19930;-68
2022/06/08 01:25:42;;;;;;;;;;;;;;;26.87;53.60;98135.00;2060388;28;19929;-68
2022/06/08 01:26:51;;;;;;;;;;;;;;;26.87;53.40;98136.94;2068917;28;19937;-68
2022/06/08 01:27:57;;;;;;;;;;;;;;;26.88;53.28;98133.91;2062313;28;19933;-68
2022/06/08 01:29:01;;;;;;;;;;;;;;;26.87;53.68;98140.47;2064174;28;19940;-68
2022/06/08 01:30:09;;;;;;;;;;;;;;;26.86;53.20;98133.41;2064844;28;19943;-68
2022/06/08 01:31:14;;;;;;;;;;;;;;;26.86;53.38;98138.84;2061792;28;20077;-68
2022/06/08 01:32:19;;;;;;;;;;;;;;;26.86;53.59;98136.13;2059372;28;19934;-68
2022/06/08 01:33:32;;;;;;;;;;;;;;;26.88;53.17;98133.91;2064027;28;19929;-67
2022/06/08 01:34:40;;;;;;;;;;;;;;;26.86;53.43;98136.13;2067303;28;19929;-67
2022/06/08 01:35:46;;;;;;;;;;;;;;;26.86;53.60;98130.66;2060975;28;19933;-68
2022/06/08 01:36:55;;;;;;;;;;;;;;;26.87;53.57;98135.00;2067088;28;19940;-68
2022/06/08 01:38:04;;;;;;;;;;;;;;;26.85;53.57;98129.03;2066185;28;20460;-68
2022/06/08 01:39:07;;;;;;;;;;;;;;;26.85;53.76;98128.22;2063184;28;20306;-68
2022/06/08 01:40:25;;;;;;;;;;;;;;;26.85;53.71;98134.47;2057835;28;19933;-68
2022/06/08 01:41:36;;;;;;;;;;;;;;;26.84;53.71;98132.84;2058626;28;20020;-67
2022/06/08 01:42:46;;;;;;;;;;;;;;;26.85;53.47;98129.03;2064909;28;19937;-68
2022/06/08 01:43:53;;;;;;;;;;;;;;;26.85;53.43;98139.09;2067783;28;19939;-68
2022/06/08 01:46:24;;;;;;;;;;;;;;;26.85;53.60;98139.91;2065206;28;19934;-69
2022/06/08 01:47:31;;;;;;;;;;;;;;;26.84;53.84;98130.13;2066051;28;19925;-68
2022/06/08 01:48:47;;;;;;;;;;;;;;;26.85;53.67;98131.75;2065905;28;20399;-67
2022/06/08 01:49:55;;;;;;;;;;;;;;;26.85;53.71;98131.75;2065463;28;19984;-68
2022/06/08 01:51:00;;;;;;;;;;;;;;;26.83;53.60;98130.38;2059289;28;20449;-67
2022/06/08 01:52:12;;;;;;;;;;;;;;;26.84;53.62;98130.13;2061823;28;20496;-67
2022/06/08 01:53:19;;;;;;;;;;;;;;;26.84;53.54;98135.56;2063429;28;20619;-67
2022/06/08 01:54:28;;;;;;;;;;;;;;;26.85;53.61;98139.09;2060183;28;19929;-68
2022/06/08 01:55:33;;;;;;;;;;;;;;;26.83;53.74;98136.66;2061688;28;21709;-67
2022/06/08 01:56:42;;;;;;;;;;;;;;;26.83;53.91;98142.09;2062026;28;20392;-68
2022/06/08 01:57:55;;;;;;;;;;;;;;;26.84;53.43;98141.00;2062353;28;20414;-67
2022/06/08 01:59:02;;;;;;;;;;;;;;;26.82;53.82;98137.72;2060725;28;19929;-68
2022/06/08 02:00:07;;;;;;;;;;;;;;;26.82;53.40;98140.44;2066757;28;20290;-68
2022/06/08 02:01:15;;;;;;;;;;;;;;;26.84;53.60;98137.47;2062912;28;19980;-68
2022/06/08 02:02:22;;;;;;;;;;;;;;;26.83;53.52;98141.25;2066422;28;20194;-67
2022/06/08 02:03:26;;;;;;;;;;;;;;;26.82;53.50;98134.19;2060173;28;19929;-68
2022/06/08 02:04:31;;;;;;;;;;;;;;;26.83;53.48;98133.09;2068519;28;19940;-69
2022/06/08 02:05:38;;;;;;;;;;;;;;;26.82;53.39;98137.72;2067508;28;19983;-67
2022/06/08 02:06:41;;;;;;;;;;;;;;;26.82;53.88;98135.00;2067972;28;20203;-69
2022/06/08 02:07:45;;;;;;;;;;;;;;;26.83;53.54;98131.22;2065244;28;20489;-68
2022/06/08 02:08:50;;;;;;;;;;;;;;;26.82;53.55;98134.19;2062016;28;19926;-68
2022/06/08 02:09:54;;;;;;;;;;;;;;;26.83;53.75;98135.81;2061943;28;20464;-68
2022/06/08 02:10:58;;;;;;;;;;;;;;;26.81;53.78;98133.38;2062635;28;19929;-68
2022/06/08 02:12:03;;;;;;;;;;;;;;;26.82;53.44;98129.56;2060225;28;19935;-69
2022/06/08 02:13:14;;;;;;;;;;;;;;;26.81;53.56;98127.94;2063513;28;19936;-69
2022/06/08 02:14:19;;;;;;;;;;;;;;;26.82;53.76;98126.84;2061770;28;19939;-68
2022/06/08 02:15:23;;;;;;;;;;;;;;;26.82;53.49;98126.03;2064283;28;20242;-68
2022/06/08 02:16:29;;;;;;;;;;;;;;;26.81;53.50;98121.69;2059464;28;19965;-69
2022/06/08 02:17:32;;;;;;;;;;;;;;;26.81;53.85;98127.94;2061613;28;19933;-68
2022/06/08 02:18:36;;;;;;;;;;;;;;;26.82;53.33;98124.13;2060882;28;19930;-67
2022/06/08 02:20:59;;;;;;;;;;;;;;;26.80;53.56;98131.75;2066190;28;19955;-52
2022/06/08 02:22:03;;;;;;;;;;;;;;;26.80;53.76;98125.47;2067095;28;19933;-53
2022/06/08 02:23:09;;;;;;;;;;;;;;;26.79;53.57;98121.94;2069399;28;20003;-53
2022/06/08 02:24:13;;;;;;;;;;;;;;;26.80;53.57;98120.03;2067449;28;19941;-51
2022/06/08 02:25:17;;;;;;;;;;;;;;;26.80;53.58;98118.16;2072243;28;20019;-51
2022/06/08 02:26:20;;;;;;;;;;;;;;;26.80;53.83;98118.16;2073274;28;19940;-57
2022/06/08 02:27:25;;;;;;;;;;;;;;;26.80;53.53;98112.72;2070482;28;20052;-52
2022/06/08 02:28:29;;;;;;;;;;;;;;;26.78;53.84;98112.16;2072657;28;19933;-53
2022/06/08 02:29:35;;;;;;;;;;;;;;;26.79;53.47;98116.50;2071269;28;19937;-54
2022/06/08 02:30:38;;;;;;;;;;;;;;;26.79;53.39;98119.22;2070563;28;19936;-52
2022/06/08 02:31:42;;;;;;;;;;;;;;;26.78;53.84;98114.88;2070088;28;19929;-52
2022/06/08 02:35:38;;;;;;;;;;;;;;;26.77;53.49;98113.22;2044262;28;19968;-53
2022/06/08 02:36:43;;;;;;;;;;;;;;;26.78;53.88;98117.59;2060599;28;19929;-52
2022/06/08 02:37:46;;;;;;;;;;;;;;;26.77;53.79;98117.84;2068253;28;20839;-53
2022/06/08 02:38:52;;;;;;;;;;;;;;;26.77;53.51;98113.22;2072152;28;20014;-53
2022/06/08 02:39:56;;;;;;;;;;;;;;;26.77;53.82;98115.94;2065966;28;19933;-52
2022/06/08 02:40:58;;;;;;;;;;;;;;;26.78;53.93;98114.06;2069764;28;20365;-52
2022/06/08 02:42:03;;;;;;;;;;;;;;;26.77;53.80;98121.38;2071775;28;19929;-52
2022/06/08 02:43:08;;;;;;;;;;;;;;;26.77;53.62;98117.84;2068066;28;19937;-54
2022/06/08 02:44:11;;;;;;;;;;;;;;;26.76;53.66;98119.75;2069281;28;20964;-52
2022/06/08 02:45:15;;;;;;;;;;;;;;;26.76;53.94;98117.03;2071630;28;20128;-54
2022/06/08 02:46:19;;;;;;;;;;;;;;;26.76;53.45;98122.47;2072127;28;20656;-55
2022/06/08 02:47:29;;;;;;;;;;;;;;;26.77;53.81;98115.94;2070263;28;19942;-55
2022/06/08 02:48:29;;;;;;;;;;;;;;;26.76;53.64;98122.47;2067106;28;19940;-54
2022/06/08 02:49:33;;;;;;;;;;;;;;;26.76;53.75;98127.13;2066133;28;19932;-54
2022/06/08 02:50:33;;;;;;;;;;;;;;;26.77;53.74;98120.56;2063762;28;19933;-55
2022/06/08 02:51:35;;;;;;;;;;;;;;;26.76;53.59;98119.75;2071851;28;20283;-54
2022/06/08 02:52:36;;;;;;;;;;;;;;;26.76;53.53;98124.38;2067030;28;19934;-54
2022/06/08 02:53:55;;;;;;;;;;;;;;;26.75;53.95;98129.03;2070422;28;19999;-53
2022/06/08 02:54:57;;;;;;;;;;;;;;;26.76;53.82;98125.19;2069213;28;19940;-51
2022/06/08 02:56:04;;;;;;;;;;;;;;;26.76;53.89;98118.94;2068791;28;20256;-51
2022/06/08 02:57:10;;;;;;;;;;;;;;;26.75;53.39;98123.56;2071963;28;19929;-54
2022/06/08 02:58:14;;;;;;;;;;;;;;;26.75;53.63;98123.56;2071978;28;19929;-53
2022/06/08 02:59:19;;;;;;;;;;;;;;;26.75;53.67;98126.31;2074678;28;20441;-54
2022/06/08 03:00:24;;;;;;;;;;;;;;;26.76;53.84;98138.00;2065892;28;19933;-52
2022/06/08 03:01:28;;;;;;;;;;;;;;;26.72;53.59;98130.38;2067642;28;19944;-56
2022/06/08 03:02:34;;;;;;;;;;;;;;;26.74;53.67;98133.66;2070212;28;20483;-54
2022/06/08 03:03:38;;;;;;;;;;;;;;;26.74;53.63;98132.81;2071779;28;19940;-55
2022/06/08 03:04:44;;;;;;;;;;;;;;;26.73;53.91;98128.47;2073622;28;20007;-53
2022/06/08 03:05:50;;;;;;;;;;;;;;;26.73;53.53;98131.19;2071173;28;19929;-53
2022/06/08 03:06:52;;;;;;;;;;;;;;;26.73;53.78;98131.19;2074241;28;20665;-55
2022/06/08 03:07:56;;;;;;;;;;;;;;;26.72;53.76;98124.13;2071598;28;19933;-53
2022/06/08 03:08:58;;;;;;;;;;;;;;;26.72;53.63;98135.00;2066190;28;20016;-53
2022/06/08 03:10:03;;;;;;;;;;;;;;;26.72;53.99;98129.56;2065403;28;20039;-54
2022/06/08 03:11:05;;;;;;;;;;;;;;;26.72;53.71;98126.84;2070801;28;19944;-52
2022/06/08 03:12:10;;;;;;;;;;;;;;;26.72;54.08;98129.56;2071669;28;19972;-53
2022/06/08 03:13:14;;;;;;;;;;;;;;;26.73;53.93;98133.91;2070795;28;20565;-55
2022/06/08 03:14:17;;;;;;;;;;;;;;;26.72;53.93;98135.00;2068063;28;19929;-53
2022/06/08 03:15:21;;;;;;;;;;;;;;;26.71;54.06;98127.91;2070136;28;19929;-53
2022/06/08 03:16:27;;;;;;;;;;;;;;;26.71;54.07;98136.88;2065415;28;20043;-56
2022/06/08 03:17:30;;;;;;;;;;;;;;;26.69;53.90;98138.22;2072292;28;20011;-54
2022/06/08 03:18:32;;;;;;;;;;;;;;;26.71;54.08;98134.16;2071214;28;19925;-52
2022/06/08 03:19:34;;;;;;;;;;;;;;;26.70;54.00;98135.25;2066767;28;20001;-56
2022/06/08 03:20:36;;;;;;;;;;;;;;;26.71;54.00;98138.78;2069436;28;19964;-55
2022/06/08 03:21:37;;;;;;;;;;;;;;;26.71;53.75;98136.06;2070947;28;20021;-55
2022/06/08 03:22:39;;;;;;;;;;;;;;;26.71;53.71;98141.50;2069507;28;19933;-52
2022/06/08 03:23:39;;;;;;;;;;;;;;;26.70;53.70;98146.13;2068008;28;20375;-57
2022/06/08 03:24:41;;;;;;;;;;;;;;;26.72;53.82;98143.16;2072740;28;19936;-51
2022/06/08 03:25:43;;;;;;;;;;;;;;;26.71;54.00;98141.50;2072049;28;19933;-52
2022/06/08 03:26:46;;;;;;;;;;;;;;;26.70;53.61;98145.34;2071205;28;20016;-54
2022/06/08 03:27:48;;;;;;;;;;;;;;;26.70;54.10;98134.44;2067892;28;19929;-52
2022/06/08 03:28:49;;;;;;;;;;;;;;;26.70;54.07;98142.59;2066877;28;19940;-54
2022/06/08 03:29:51;;;;;;;;;;;;;;;26.69;53.91;98139.06;2074417;28;20469;-52
2022/06/08 03:30:52;;;;;;;;;;;;;;;26.70;53.93;98137.97;2073426;28;20318;-53
2022/06/08 03:31:53;;;;;;;;;;;;;;;26.70;54.14;98137.16;2072781;28;19925;-55
2022/06/08 03:32:54;;;;;;;;;;;;;;;26.70;53.91;98142.59;2070016;28;20524;-53
2022/06/08 03:33:56;;;;;;;;;;;;;;;26.69;53.79;98140.97;2066727;28;20036;-55
2022/06/08 03:34:56;;;;;;;;;;;;;;;26.69;54.14;98143.66;2066148;28;19940;-53
2022/06/08 03:35:58;;;;;;;;;;;;;;;26.68;53.94;98139.34;2069848;28;20867;-54
2022/06/08 03:36:59;;;;;;;;;;;;;;;26.68;54.15;98144.78;2067507;28;20487;-54
2022/06/08 03:38:00;;;;;;;;;;;;;;;26.68;53.72;98139.34;2070694;28;19936;-51
2022/06/08 03:39:01;;;;;;;;;;;;;;;26.67;54.20;98132.28;2070954;28;20013;-53
2022/06/08 03:40:04;;;;;;;;;;;;;;;26.68;54.05;98139.34;2068117;28;19930;-54
2022/06/08 03:41:06;;;;;;;;;;;;;;;26.68;54.18;98139.34;2070412;28;19936;-53
2022/06/08 03:42:08;;;;;;;;;;;;;;;26.68;54.21;98140.13;2073640;28;19951;-53
2022/06/08 03:43:08;;;;;;;;;;;;;;;26.67;54.01;98143.97;2070753;28;19936;-54
2022/06/08 03:44:10;;;;;;;;;;;;;;;26.67;54.13;98143.16;2070858;28;21432;-59
2022/06/08 03:45:10;;;;;;;;;;;;;;;26.67;54.13;98151.31;2067732;28;22076;-54
2022/06/08 03:46:12;;;;;;;;;;;;;;;26.67;54.00;98145.88;2069789;28;20003;-55
2022/06/08 03:47:15;;;;;;;;;;;;;;;26.67;54.04;98145.88;2071073;28;21239;-54
2022/06/08 03:48:18;;;;;;;;;;;;;;;26.66;54.23;98153.22;2071810;28;19972;-54
2022/06/08 03:49:19;;;;;;;;;;;;;;;26.66;54.17;98150.50;2069016;28;19929;-54
2022/06/08 03:50:23;;;;;;;;;;;;;;;26.66;53.82;98142.34;2073596;28;19929;-53
2022/06/08 03:51:23;;;;;;;;;;;;;;;26.65;54.09;98143.41;2065233;28;19936;-53
2022/06/08 03:52:27;;;;;;;;;;;;;;;26.68;54.09;98144.78;2071498;28;19929;-55
2022/06/08 03:53:29;;;;;;;;;;;;;;;26.66;54.09;98139.63;2072874;28;20398;-52
2022/06/08 03:54:33;;;;;;;;;;;;;;;26.66;54.09;98141.50;2068322;28;19925;-55
2022/06/08 03:55:35;;;;;;;;;;;;;;;26.66;54.25;98144.22;2067809;28;19929;-56
2022/06/08 03:56:38;;;;;;;;;;;;;;;26.64;54.13;98138.25;2069731;28;19929;-56
2022/06/08 03:57:45;;;;;;;;;;;;;;;26.66;54.12;98138.78;2068302;28;19925;-55
2022/06/08 03:58:45;;;;;;;;;;;;;;;26.65;53.85;98140.69;2069126;28;19955;-54
2022/06/08 03:59:48;;;;;;;;;;;;;;;26.65;54.10;98140.69;2067607;28;19983;-53
2022/06/08 04:00:49;;;;;;;;;;;;;;;26.64;53.91;98143.69;2067652;28;21603;-55
2022/06/08 04:01:51;;;;;;;;;;;;;;;26.65;54.03;98145.31;2071125;28;19937;-55
2022/06/08 04:02:53;;;;;;;;;;;;;;;26.63;54.22;98140.13;2067420;28;19983;-52
2022/06/08 04:03:55;;;;;;;;;;;;;;;26.63;54.27;98140.13;2072014;28;19973;-55
2022/06/08 04:04:56;;;;;;;;;;;;;;;26.64;54.18;98140.97;2070854;28;19933;-54
2022/06/08 04:05:58;;;;;;;;;;;;;;;26.65;53.95;98142.59;2069967;28;20297;-54
2022/06/08 04:06:59;;;;;;;;;;;;;;;26.63;53.96;98142.03;2070631;28;20020;-54
2022/06/08 04:08:00;;;;;;;;;;;;;;;26.63;54.05;98144.75;2069261;28;19992;-53
2022/06/08 04:09:01;;;;;;;;;;;;;;;26.65;53.83;98142.59;2071736;28;19925;-52
2022/06/08 04:10:03;;;;;;;;;;;;;;;26.64;54.28;98139.06;2071735;28;20386;-54
2022/06/08 04:11:03;;;;;;;;;;;;;;;26.65;54.10;98145.31;2065786;28;19929;-55
2022/06/08 04:12:07;;;;;;;;;;;;;;;26.62;54.31;98135.78;2067099;28;19925;-53
2022/06/08 04:13:07;;;;;;;;;;;;;;;26.63;54.13;98137.41;2069219;28;20981;-53
2022/06/08 04:14:09;;;;;;;;;;;;;;;26.62;54.17;98138.50;2071811;28;20042;-54
2022/06/08 04:15:10;;;;;;;;;;;;;;;26.63;54.06;98142.84;2063735;28;19939;-52
2022/06/08 04:16:12;;;;;;;;;;;;;;;26.63;54.26;98139.31;2072395;28;19960;-54
2022/06/08 04:17:12;;;;;;;;;;;;;;;26.62;54.02;98140.41;2066548;28;20914;-53
2022/06/08 04:18:15;;;;;;;;;;;;;;;26.62;54.14;98137.69;2068629;28;19939;-53
2022/06/08 04:19:16;;;;;;;;;;;;;;;26.61;53.92;98138.78;2067137;28;19994;-56
2022/06/08 04:20:18;;;;;;;;;;;;;;;26.61;54.10;98147.75;2071422;28;19957;-55
2022/06/08 04:21:19;;;;;;;;;;;;;;;26.61;53.99;98141.50;2070001;28;20043;-54
2022/06/08 04:22:21;;;;;;;;;;;;;;;26.61;54.36;98145.03;2069664;28;19929;-52
2022/06/08 04:23:23;;;;;;;;;;;;;;;26.61;53.93;98145.03;2068129;28;19929;-55
2022/06/08 04:24:24;;;;;;;;;;;;;;;26.61;54.17;98149.66;2071454;28;19933;-55
2022/06/08 04:25:25;;;;;;;;;;;;;;;26.62;54.36;98140.41;2072841;28;20387;-53
2022/06/08 04:26:27;;;;;;;;;;;;;;;26.60;54.09;98148.81;2070747;28;19925;-54
2022/06/08 04:27:29;;;;;;;;;;;;;;;26.60;54.08;98146.09;2071414;28;19929;-54
2022/06/08 04:28:30;;;;;;;;;;;;;;;26.61;54.05;98146.94;2071883;28;19940;-52
2022/06/08 04:29:31;;;;;;;;;;;;;;;26.62;54.36;98151.28;2072250;28;19940;-55
2022/06/08 04:30:32;;;;;;;;;;;;;;;26.60;53.95;98145.28;2071454;28;19925;-53
2022/06/08 04:31:34;;;;;;;;;;;;;;;26.60;54.21;98150.72;2071583;28;20008;-55
2022/06/08 04:32:35;;;;;;;;;;;;;;;26.60;54.19;98148.00;2068711;28;19925;-57
2022/06/08 04:33:36;;;;;;;;;;;;;;;26.60;54.23;98148.00;2070782;28;20015;-54
2022/06/08 04:34:38;;;;;;;;;;;;;;;26.60;54.00;98153.44;2066348;28;19928;-56
2022/06/08 04:35:39;;;;;;;;;;;;;;;26.60;54.01;98153.44;2069708;28;20400;-53
2022/06/08 04:36:41;;;;;;;;;;;;;;;26.59;54.37;98151.81;2070786;28;19929;-50
2022/06/08 04:37:42;;;;;;;;;;;;;;;26.59;54.01;98154.56;2074159;28;19936;-52
2022/06/08 04:38:43;;;;;;;;;;;;;;;26.60;54.28;98153.44;2072658;28;20618;-51
2022/06/08 04:39:44;;;;;;;;;;;;;;;26.58;53.92;98151.03;2073346;28;19929;-52
2022/06/08 04:40:46;;;;;;;;;;;;;;;26.59;53.95;98157.28;2071770;28;20393;-52
2022/06/08 04:41:47;;;;;;;;;;;;;;;26.57;53.97;98149.38;2071321;28;19941;-56
2022/06/08 04:42:49;;;;;;;;;;;;;;;26.58;54.43;98158.34;2066081;28;19932;-55
2022/06/08 04:43:51;;;;;;;;;;;;;;;26.59;54.37;98162.72;2074493;28;19929;-51
2022/06/08 04:44:52;;;;;;;;;;;;;;;26.59;54.45;98163.53;2071549;28;19933;-51
2022/06/08 04:45:54;;;;;;;;;;;;;;;26.57;54.36;98160.25;2072710;28;19939;-56
2022/06/08 04:46:55;;;;;;;;;;;;;;;26.56;54.49;98164.06;2074317;28;19929;-52
2022/06/08 04:47:56;;;;;;;;;;;;;;;26.56;54.11;98160.53;2069387;28;20055;-55
2022/06/08 04:48:57;;;;;;;;;;;;;;;26.58;54.04;98164.63;2069111;28;19948;-53
2022/06/08 04:49:58;;;;;;;;;;;;;;;26.57;54.21;98159.44;2070157;28;20038;-55
2022/06/08 04:50:59;;;;;;;;;;;;;;;26.57;54.41;98164.88;2069957;28;20597;-54
2022/06/08 04:52:01;;;;;;;;;;;;;;;26.57;54.33;98164.88;2072904;28;19935;-54
2022/06/08 04:53:01;;;;;;;;;;;;;;;26.56;54.18;98166.78;2069513;28;20335;-54
2022/06/08 04:54:03;;;;;;;;;;;;;;;26.56;54.40;98165.97;2069450;28;20155;-51
2022/06/08 04:55:05;;;;;;;;;;;;;;;26.56;54.10;98168.69;2073643;28;19956;-56
2022/06/08 04:56:07;;;;;;;;;;;;;;;26.56;54.02;98171.41;2070210;28;20323;-52
2022/06/08 04:57:08;;;;;;;;;;;;;;;26.56;54.21;98171.41;2071480;28;19929;-54
2022/06/08 04:58:11;;;;;;;;;;;;;;;26.56;54.26;98168.69;2068844;28;19933;-54
2022/06/08 04:59:11;;;;;;;;;;;;;;;26.56;54.49;98168.69;2067450;28;19933;-55
2022/06/08 05:00:16;;;;;;;;;;;;;;;26.55;54.05;98167.03;2070450;28;23304;-54
2022/06/08 05:01:17;;;;;;;;;;;;;;;26.54;54.14;98168.94;2066846;28;20353;-54
2022/06/08 05:03:34;;;;;;;;;;;;;;;26.56;54.44;98163.25;2066130;28;20334;-52
2022/06/08 05:04:35;;;;;;;;;;;;;;;26.54;54.06;98165.41;2068007;28;19929;-55
2022/06/08 05:05:39;;;;;;;;;;;;;;;26.55;54.33;98172.47;2064391;28;19929;-55
2022/06/08 05:06:39;;;;;;;;;;;;;;;26.55;54.37;98167.03;2067522;28;20039;-55
2022/06/08 05:07:41;;;;;;;;;;;;;;;26.55;54.08;98172.47;2071817;28;20688;-53
2022/06/08 05:08:43;;;;;;;;;;;;;;;26.55;54.25;98172.47;2063714;28;19940;-57
2022/06/08 05:09:43;;;;;;;;;;;;;;;26.55;53.93;98169.75;2069764;28;19929;-57
2022/06/08 05:10:46;;;;;;;;;;;;;;;26.54;54.23;98177.09;2070985;28;26129;-53
2022/06/08 05:11:46;;;;;;;;;;;;;;;26.54;54.04;98176.28;2071566;28;19936;-54
2022/06/08 05:12:49;;;;;;;;;;;;;;;26.55;54.31;98172.47;2076370;28;20778;-50
2022/06/08 05:13:52;;;;;;;;;;;;;;;26.54;54.07;98170.84;2069839;28;20056;-53
2022/06/08 05:14:52;;;;;;;;;;;;;;;26.54;54.37;98171.66;2067036;28;19925;-55
2022/06/08 05:15:54;;;;;;;;;;;;;;;26.54;54.41;98179.81;2068540;28;19943;-53
2022/06/08 05:16:54;;;;;;;;;;;;;;;26.54;54.22;98177.09;2067870;28;19940;-53
2022/06/08 05:17:56;;;;;;;;;;;;;;;26.54;54.52;98182.53;2062313;28;19929;-55
2022/06/08 05:18:57;;;;;;;;;;;;;;;26.52;54.52;98177.38;2065355;28;19983;-50
2022/06/08 05:19:58;;;;;;;;;;;;;;;26.51;54.65;98178.44;2064008;28;19968;-55
2022/06/08 05:21:00;;;;;;;;;;;;;;;26.52;54.96;98180.09;2067290;28;19987;-56
2022/06/08 05:22:01;;;;;;;;;;;;;;;26.55;54.66;98183.34;2071088;28;19937;-52
2022/06/08 05:23:03;;;;;;;;;;;;;;;26.56;55.39;98185.00;2066448;28;19941;-56
2022/06/08 05:24:04;;;;;;;;;;;;;;;26.50;55.43;98193.13;2066029;28;19933;-55
2022/06/08 05:25:07;;;;;;;;;;;;;;;26.41;55.31;98191.16;2072412;28;20023;-54
2022/06/08 05:26:08;;;;;;;;;;;;;;;26.20;55.06;98198.41;2067966;28;19929;-53
2022/06/08 05:27:13;;;;;;;;;;;;;;;26.12;54.93;98196.19;2071820;28;20016;-59
2022/06/08 05:28:14;;;;;;;;;;;;;;;25.97;55.81;98194.22;2069362;28;20381;-55
2022/06/08 05:29:16;;;;;;;;;;;;;;;25.81;55.33;98195.97;2073189;28;19939;-52
2022/06/08 05:30:17;;;;;;;;;;;;;;;25.64;55.87;98190.69;2071441;28;19941;-54
2022/06/08 05:31:19;;;;;;;;;;;;;;;25.56;56.31;98194.69;2072106;28;20072;-52
2022/06/08 05:32:20;;;;;;;;;;;;;;;25.60;55.93;98195.84;2067190;28;19933;-56
2022/06/08 05:33:21;;;;;;;;;;;;;;;25.58;55.63;98200.69;2068856;28;19931;-54
2022/06/08 05:34:22;;;;;;;;;;;;;;;25.46;55.86;98191.91;2062640;28;19945;-57
2022/06/08 05:35:24;;;;;;;;;;;;;;;25.46;55.93;98199.22;2059772;28;20032;-55